sensor_id;sensor_type;location;lat;lon;timestamp;P1;durP1;ratioP1;P2;durP2;ratioP2
64832;SDS011;51290;45.060;38.948;2023-10-08T00:00:47;9.32;;;4.75;;
64832;SDS011;51290;45.060;38.948;2023-10-08T00:03:19;7.63;;;4.72;;
64832;SDS011;51290;45.060;38.948;2023-10-08T00:05:52;13.10;;;5.25;;
64832;SDS011;51290;45.060;38.948;2023-10-08T00:08:18;8.90;;;4.65;;
64832;SDS011;51290;45.060;38.948;2023-10-08T00:10:45;9.95;;;5.18;;
64832;SDS011;51290;45.060;38.948;2023-10-08T00:13:11;9.40;;;4.88;;
64832;SDS011;51290;45.060;38.948;2023-10-08T00:15:38;7.60;;;4.55;;
64832;SDS011;51290;45.060;38.948;2023-10-08T00:18:16;10.27;;;5.20;;
64832;SDS011;51290;45.060;38.948;2023-10-08T00:20:43;9.05;;;4.80;;
64832;SDS011;51290;45.060;38.948;2023-10-08T00:23:20;9.32;;;4.85;;
64832;SDS011;51290;45.060;38.948;2023-10-08T00:25:47;10.20;;;4.95;;
64832;SDS011;51290;45.060;38.948;2023-10-08T00:28:15;10.10;;;4.75;;
64832;SDS011;51290;45.060;38.948;2023-10-08T00:30:42;6.80;;;4.50;;
64832;SDS011;51290;45.060;38.948;2023-10-08T00:33:09;10.65;;;4.80;;
64832;SDS011;51290;45.060;38.948;2023-10-08T00:35:39;9.55;;;4.70;;
64832;SDS011;51290;45.060;38.948;2023-10-08T00:38:09;19.90;;;4.85;;
64832;SDS011;51290;45.060;38.948;2023-10-08T00:40:45;10.75;;;5.07;;
64832;SDS011;51290;45.060;38.948;2023-10-08T00:43:31;13.65;;;4.80;;
64832;SDS011;51290;45.060;38.948;2023-10-08T00:45:58;7.85;;;4.15;;
64832;SDS011;51290;45.060;38.948;2023-10-08T00:48:25;13.73;;;4.47;;
64832;SDS011;51290;45.060;38.948;2023-10-08T00:51:00;8.03;;;4.20;;
64832;SDS011;51290;45.060;38.948;2023-10-08T00:53:47;9.27;;;4.90;;
64832;SDS011;51290;45.060;38.948;2023-10-08T00:56:18;8.70;;;4.45;;
64832;SDS011;51290;45.060;38.948;2023-10-08T00:58:45;9.15;;;4.55;;
64832;SDS011;51290;45.060;38.948;2023-10-08T01:01:19;8.05;;;4.85;;
64832;SDS011;51290;45.060;38.948;2023-10-08T01:03:49;8.45;;;4.55;;
64832;SDS011;51290;45.060;38.948;2023-10-08T01:06:18;6.75;;;4.47;;
64832;SDS011;51290;45.060;38.948;2023-10-08T01:08:46;8.80;;;4.93;;
64832;SDS011;51290;45.060;38.948;2023-10-08T01:11:17;9.65;;;4.85;;
64832;SDS011;51290;45.060;38.948;2023-10-08T01:14:11;9.57;;;4.80;;
64832;SDS011;51290;45.060;38.948;2023-10-08T01:16:37;7.63;;;4.70;;
64832;SDS011;51290;45.060;38.948;2023-10-08T01:19:04;7.07;;;4.30;;
64832;SDS011;51290;45.060;38.948;2023-10-08T01:21:37;8.85;;;5.07;;
64832;SDS011;51290;45.060;38.948;2023-10-08T01:24:05;7.85;;;4.88;;
64832;SDS011;51290;45.060;38.948;2023-10-08T01:26:36;13.77;;;5.38;;
64832;SDS011;51290;45.060;38.948;2023-10-08T01:29:08;8.77;;;4.85;;
64832;SDS011;51290;45.060;38.948;2023-10-08T01:31:35;10.52;;;5.07;;
64832;SDS011;51290;45.060;38.948;2023-10-08T01:34:02;12.70;;;4.90;;
64832;SDS011;51290;45.060;38.948;2023-10-08T01:36:30;10.77;;;5.07;;
64832;SDS011;51290;45.060;38.948;2023-10-08T01:38:57;8.90;;;5.25;;
64832;SDS011;51290;45.060;38.948;2023-10-08T01:41:23;8.30;;;5.03;;
64832;SDS011;51290;45.060;38.948;2023-10-08T01:43:56;9.23;;;5.20;;
64832;SDS011;51290;45.060;38.948;2023-10-08T01:46:24;8.55;;;5.40;;
64832;SDS011;51290;45.060;38.948;2023-10-08T01:48:51;11.77;;;5.78;;
64832;SDS011;51290;45.060;38.948;2023-10-08T01:51:25;12.15;;;5.63;;
64832;SDS011;51290;45.060;38.948;2023-10-08T01:54:02;8.50;;;4.88;;
64832;SDS011;51290;45.060;38.948;2023-10-08T01:56:36;9.52;;;5.32;;
64832;SDS011;51290;45.060;38.948;2023-10-08T01:59:03;12.00;;;5.13;;
64832;SDS011;51290;45.060;38.948;2023-10-08T02:01:29;9.32;;;5.40;;
64832;SDS011;51290;45.060;38.948;2023-10-08T02:03:56;7.65;;;4.53;;
64832;SDS011;51290;45.060;38.948;2023-10-08T02:06:22;12.23;;;5.10;;
64832;SDS011;51290;45.060;38.948;2023-10-08T02:08:49;6.65;;;4.35;;
64832;SDS011;51290;45.060;38.948;2023-10-08T02:11:15;9.07;;;4.47;;
64832;SDS011;51290;45.060;38.948;2023-10-08T02:13:41;12.80;;;4.85;;
64832;SDS011;51290;45.060;38.948;2023-10-08T02:16:07;11.25;;;5.05;;
64832;SDS011;51290;45.060;38.948;2023-10-08T02:18:33;12.75;;;5.18;;
64832;SDS011;51290;45.060;38.948;2023-10-08T02:21:00;9.57;;;4.53;;
64832;SDS011;51290;45.060;38.948;2023-10-08T02:23:26;8.15;;;4.93;;
64832;SDS011;51290;45.060;38.948;2023-10-08T02:25:53;8.80;;;4.85;;
64832;SDS011;51290;45.060;38.948;2023-10-08T02:28:20;8.85;;;4.88;;
64832;SDS011;51290;45.060;38.948;2023-10-08T02:30:46;8.70;;;4.68;;
64832;SDS011;51290;45.060;38.948;2023-10-08T02:33:12;14.95;;;5.13;;
64832;SDS011;51290;45.060;38.948;2023-10-08T02:35:41;8.25;;;4.93;;
64832;SDS011;51290;45.060;38.948;2023-10-08T02:38:12;9.63;;;5.00;;
64832;SDS011;51290;45.060;38.948;2023-10-08T02:40:41;12.05;;;5.47;;
64832;SDS011;51290;45.060;38.948;2023-10-08T02:43:15;9.70;;;5.05;;
64832;SDS011;51290;45.060;38.948;2023-10-08T02:45:42;11.05;;;5.07;;
64832;SDS011;51290;45.060;38.948;2023-10-08T02:48:12;8.70;;;5.25;;
64832;SDS011;51290;45.060;38.948;2023-10-08T02:50:42;8.05;;;4.65;;
64832;SDS011;51290;45.060;38.948;2023-10-08T02:53:10;10.77;;;4.85;;
64832;SDS011;51290;45.060;38.948;2023-10-08T02:55:38;8.95;;;4.85;;
64832;SDS011;51290;45.060;38.948;2023-10-08T02:58:10;10.52;;;4.93;;
64832;SDS011;51290;45.060;38.948;2023-10-08T03:00:43;11.07;;;5.53;;
64832;SDS011;51290;45.060;38.948;2023-10-08T03:03:13;11.07;;;4.88;;
64832;SDS011;51290;45.060;38.948;2023-10-08T03:05:48;13.35;;;5.15;;
64832;SDS011;51290;45.060;38.948;2023-10-08T03:08:17;10.15;;;5.10;;
64832;SDS011;51290;45.060;38.948;2023-10-08T03:10:46;8.25;;;4.80;;
64832;SDS011;51290;45.060;38.948;2023-10-08T03:13:21;9.05;;;5.13;;
64832;SDS011;51290;45.060;38.948;2023-10-08T03:15:47;9.27;;;5.70;;
64832;SDS011;51290;45.060;38.948;2023-10-08T03:18:26;8.75;;;4.85;;
64832;SDS011;51290;45.060;38.948;2023-10-08T03:21:02;22.10;;;5.70;;
64832;SDS011;51290;45.060;38.948;2023-10-08T03:23:30;8.88;;;5.05;;
64832;SDS011;51290;45.060;38.948;2023-10-08T03:26:00;8.02;;;5.22;;
64832;SDS011;51290;45.060;38.948;2023-10-08T03:28:37;13.82;;;5.75;;
64832;SDS011;51290;45.060;38.948;2023-10-08T03:31:07;19.05;;;5.95;;
64832;SDS011;51290;45.060;38.948;2023-10-08T03:33:45;9.73;;;5.65;;
64832;SDS011;51290;45.060;38.948;2023-10-08T03:36:17;8.68;;;5.10;;
64832;SDS011;51290;45.060;38.948;2023-10-08T03:38:46;9.35;;;5.22;;
64832;SDS011;51290;45.060;38.948;2023-10-08T03:43:55;11.88;;;5.50;;
64832;SDS011;51290;45.060;38.948;2023-10-08T03:46:31;9.07;;;5.20;;
64832;SDS011;51290;45.060;38.948;2023-10-08T03:49:08;9.90;;;5.78;;
64832;SDS011;51290;45.060;38.948;2023-10-08T03:51:50;10.35;;;5.60;;
64832;SDS011;51290;45.060;38.948;2023-10-08T03:54:17;14.90;;;6.10;;
64832;SDS011;51290;45.060;38.948;2023-10-08T03:56:45;14.38;;;5.63;;
64832;SDS011;51290;45.060;38.948;2023-10-08T03:59:12;20.92;;;5.95;;
64832;SDS011;51290;45.060;38.948;2023-10-08T04:01:41;12.15;;;5.75;;
64832;SDS011;51290;45.060;38.948;2023-10-08T04:04:08;11.50;;;6.25;;
64832;SDS011;51290;45.060;38.948;2023-10-08T04:06:40;11.27;;;6.35;;
64832;SDS011;51290;45.060;38.948;2023-10-08T04:09:15;11.95;;;5.90;;
64832;SDS011;51290;45.060;38.948;2023-10-08T04:11:50;10.98;;;5.75;;
64832;SDS011;51290;45.060;38.948;2023-10-08T04:14:23;10.20;;;6.28;;
64832;SDS011;51290;45.060;38.948;2023-10-08T04:16:50;8.32;;;5.35;;
64832;SDS011;51290;45.060;38.948;2023-10-08T04:19:19;9.20;;;5.53;;
64832;SDS011;51290;45.060;38.948;2023-10-08T04:21:50;10.70;;;5.30;;
64832;SDS011;51290;45.060;38.948;2023-10-08T04:24:23;10.15;;;5.70;;
64832;SDS011;51290;45.060;38.948;2023-10-08T04:27:02;12.52;;;5.93;;
64832;SDS011;51290;45.060;38.948;2023-10-08T04:29:30;9.52;;;5.88;;
64832;SDS011;51290;45.060;38.948;2023-10-08T04:31:58;13.15;;;5.40;;
64832;SDS011;51290;45.060;38.948;2023-10-08T04:34:48;26.48;;;6.47;;
64832;SDS011;51290;45.060;38.948;2023-10-08T04:37:15;10.25;;;5.82;;
64832;SDS011;51290;45.060;38.948;2023-10-08T04:39:45;9.82;;;5.50;;
64832;SDS011;51290;45.060;38.948;2023-10-08T04:42:24;11.25;;;5.80;;
64832;SDS011;51290;45.060;38.948;2023-10-08T04:44:51;6.90;;;5.10;;
64832;SDS011;51290;45.060;38.948;2023-10-08T04:47:17;10.57;;;5.53;;
64832;SDS011;51290;45.060;38.948;2023-10-08T04:50:00;11.20;;;5.60;;
64832;SDS011;51290;45.060;38.948;2023-10-08T04:52:29;13.02;;;5.10;;
64832;SDS011;51290;45.060;38.948;2023-10-08T04:54:59;9.77;;;5.82;;
64832;SDS011;51290;45.060;38.948;2023-10-08T04:57:37;9.25;;;5.93;;
64832;SDS011;51290;45.060;38.948;2023-10-08T05:00:03;10.52;;;5.70;;
64832;SDS011;51290;45.060;38.948;2023-10-08T05:02:38;11.98;;;5.85;;
64832;SDS011;51290;45.060;38.948;2023-10-08T05:05:26;8.90;;;5.45;;
64832;SDS011;51290;45.060;38.948;2023-10-08T05:08:03;10.73;;;5.30;;
64832;SDS011;51290;45.060;38.948;2023-10-08T05:10:47;11.90;;;5.70;;
64832;SDS011;51290;45.060;38.948;2023-10-08T05:13:26;9.98;;;5.75;;
64832;SDS011;51290;45.060;38.948;2023-10-08T05:16:00;12.60;;;5.68;;
64832;SDS011;51290;45.060;38.948;2023-10-08T05:18:52;10.45;;;5.50;;
64832;SDS011;51290;45.060;38.948;2023-10-08T05:21:39;10.38;;;6.10;;
64832;SDS011;51290;45.060;38.948;2023-10-08T05:24:17;11.52;;;5.95;;
64832;SDS011;51290;45.060;38.948;2023-10-08T05:26:53;9.27;;;5.65;;
64832;SDS011;51290;45.060;38.948;2023-10-08T05:29:39;11.52;;;5.85;;
64832;SDS011;51290;45.060;38.948;2023-10-08T05:32:17;11.50;;;5.50;;
64832;SDS011;51290;45.060;38.948;2023-10-08T05:35:01;10.10;;;6.45;;
64832;SDS011;51290;45.060;38.948;2023-10-08T05:37:46;10.52;;;6.13;;
64832;SDS011;51290;45.060;38.948;2023-10-08T05:40:17;13.70;;;6.55;;
64832;SDS011;51290;45.060;38.948;2023-10-08T05:43:06;10.23;;;6.00;;
64832;SDS011;51290;45.060;38.948;2023-10-08T05:45:48;12.48;;;6.32;;
64832;SDS011;51290;45.060;38.948;2023-10-08T05:51:10;14.35;;;5.47;;
64832;SDS011;51290;45.060;38.948;2023-10-08T05:53:49;17.15;;;5.75;;
64832;SDS011;51290;45.060;38.948;2023-10-08T05:56:21;13.70;;;6.38;;
64832;SDS011;51290;45.060;38.948;2023-10-08T05:58:53;12.05;;;5.88;;
64832;SDS011;51290;45.060;38.948;2023-10-08T06:04:06;14.57;;;5.88;;
64832;SDS011;51290;45.060;38.948;2023-10-08T06:06:51;18.23;;;6.03;;
64832;SDS011;51290;45.060;38.948;2023-10-08T06:09:35;18.20;;;6.10;;
64832;SDS011;51290;45.060;38.948;2023-10-08T06:12:03;32.22;;;7.75;;
64832;SDS011;51290;45.060;38.948;2023-10-08T06:14:35;12.40;;;5.78;;
64832;SDS011;51290;45.060;38.948;2023-10-08T06:17:33;14.35;;;6.15;;
64832;SDS011;51290;45.060;38.948;2023-10-08T06:20:10;17.08;;;6.80;;
64832;SDS011;51290;45.060;38.948;2023-10-08T06:22:42;18.52;;;6.65;;
64832;SDS011;51290;45.060;38.948;2023-10-08T06:25:09;17.13;;;6.47;;
64832;SDS011;51290;45.060;38.948;2023-10-08T06:27:43;18.50;;;6.40;;
64832;SDS011;51290;45.060;38.948;2023-10-08T06:30:12;25.10;;;6.68;;
64832;SDS011;51290;45.060;38.948;2023-10-08T06:32:43;16.33;;;5.68;;
64832;SDS011;51290;45.060;38.948;2023-10-08T06:35:17;17.27;;;6.25;;
64832;SDS011;51290;45.060;38.948;2023-10-08T06:37:44;18.27;;;5.88;;
64832;SDS011;51290;45.060;38.948;2023-10-08T06:40:11;25.58;;;6.05;;
64832;SDS011;51290;45.060;38.948;2023-10-08T06:42:57;13.10;;;5.40;;
64832;SDS011;51290;45.060;38.948;2023-10-08T06:45:29;15.88;;;6.10;;
64832;SDS011;51290;45.060;38.948;2023-10-08T06:47:58;15.90;;;6.28;;
64832;SDS011;51290;45.060;38.948;2023-10-08T06:50:31;26.90;;;7.05;;
64832;SDS011;51290;45.060;38.948;2023-10-08T06:53:00;15.25;;;6.32;;
64832;SDS011;51290;45.060;38.948;2023-10-08T06:55:32;14.13;;;6.15;;
64832;SDS011;51290;45.060;38.948;2023-10-08T06:58:01;14.27;;;6.45;;
64832;SDS011;51290;45.060;38.948;2023-10-08T07:00:34;10.52;;;5.65;;
64832;SDS011;51290;45.060;38.948;2023-10-08T07:03:06;24.90;;;6.65;;
64832;SDS011;51290;45.060;38.948;2023-10-08T07:05:40;15.10;;;6.28;;
64832;SDS011;51290;45.060;38.948;2023-10-08T07:08:15;16.08;;;6.00;;
64832;SDS011;51290;45.060;38.948;2023-10-08T07:10:41;31.42;;;7.22;;
64832;SDS011;51290;45.060;38.948;2023-10-08T07:13:07;26.05;;;6.40;;
64832;SDS011;51290;45.060;38.948;2023-10-08T07:15:34;25.27;;;6.10;;
64832;SDS011;51290;45.060;38.948;2023-10-08T07:18:04;19.20;;;6.13;;
64832;SDS011;51290;45.060;38.948;2023-10-08T07:20:35;27.88;;;7.07;;
64832;SDS011;51290;45.060;38.948;2023-10-08T07:23:07;26.25;;;6.65;;
64832;SDS011;51290;45.060;38.948;2023-10-08T07:28:38;15.65;;;6.32;;
64832;SDS011;51290;45.060;38.948;2023-10-08T07:31:15;29.67;;;6.57;;
64832;SDS011;51290;45.060;38.948;2023-10-08T07:33:42;23.52;;;6.68;;
64832;SDS011;51290;45.060;38.948;2023-10-08T07:36:12;17.38;;;6.93;;
64832;SDS011;51290;45.060;38.948;2023-10-08T07:38:43;14.95;;;5.53;;
64832;SDS011;51290;45.060;38.948;2023-10-08T07:41:10;14.32;;;5.85;;
64832;SDS011;51290;45.060;38.948;2023-10-08T07:43:40;23.85;;;6.47;;
64832;SDS011;51290;45.060;38.948;2023-10-08T07:46:11;25.65;;;6.50;;
64832;SDS011;51290;45.060;38.948;2023-10-08T07:48:40;10.55;;;5.75;;
64832;SDS011;51290;45.060;38.948;2023-10-08T07:51:08;16.75;;;6.45;;
64832;SDS011;51290;45.060;38.948;2023-10-08T07:53:34;15.57;;;5.82;;
64832;SDS011;51290;45.060;38.948;2023-10-08T07:56:04;11.35;;;5.72;;
64832;SDS011;51290;45.060;38.948;2023-10-08T07:58:37;12.02;;;5.90;;
64832;SDS011;51290;45.060;38.948;2023-10-08T08:01:06;23.83;;;7.35;;
64832;SDS011;51290;45.060;38.948;2023-10-08T08:03:33;13.43;;;6.32;;
64832;SDS011;51290;45.060;38.948;2023-10-08T08:06:05;12.90;;;6.35;;
64832;SDS011;51290;45.060;38.948;2023-10-08T08:08:32;19.77;;;6.00;;
64832;SDS011;51290;45.060;38.948;2023-10-08T08:10:59;23.55;;;6.20;;
64832;SDS011;51290;45.060;38.948;2023-10-08T08:13:41;20.15;;;6.57;;
64832;SDS011;51290;45.060;38.948;2023-10-08T08:16:08;21.25;;;6.82;;
64832;SDS011;51290;45.060;38.948;2023-10-08T08:18:45;16.58;;;6.15;;
64832;SDS011;51290;45.060;38.948;2023-10-08T08:21:11;21.05;;;6.95;;
64832;SDS011;51290;45.060;38.948;2023-10-08T08:23:41;17.33;;;6.18;;
64832;SDS011;51290;45.060;38.948;2023-10-08T08:26:19;13.50;;;5.75;;
64832;SDS011;51290;45.060;38.948;2023-10-08T08:28:54;24.10;;;7.70;;
64832;SDS011;51290;45.060;38.948;2023-10-08T08:31:25;52.50;;;7.60;;
64832;SDS011;51290;45.060;38.948;2023-10-08T08:33:52;23.98;;;6.22;;
64832;SDS011;51290;45.060;38.948;2023-10-08T08:36:22;17.27;;;5.70;;
64832;SDS011;51290;45.060;38.948;2023-10-08T08:38:51;12.13;;;5.47;;
64832;SDS011;51290;45.060;38.948;2023-10-08T08:41:18;13.68;;;6.22;;
64832;SDS011;51290;45.060;38.948;2023-10-08T08:43:50;25.35;;;5.95;;
64832;SDS011;51290;45.060;38.948;2023-10-08T08:46:33;13.38;;;6.55;;
64832;SDS011;51290;45.060;38.948;2023-10-08T08:49:03;24.75;;;6.80;;
64832;SDS011;51290;45.060;38.948;2023-10-08T08:51:33;19.02;;;5.93;;
64832;SDS011;51290;45.060;38.948;2023-10-08T08:54:03;19.55;;;6.50;;
64832;SDS011;51290;45.060;38.948;2023-10-08T08:56:35;19.00;;;6.35;;
64832;SDS011;51290;45.060;38.948;2023-10-08T08:59:04;14.38;;;6.10;;
64832;SDS011;51290;45.060;38.948;2023-10-08T09:01:31;14.13;;;5.78;;
64832;SDS011;51290;45.060;38.948;2023-10-08T09:03:58;11.52;;;6.05;;
64832;SDS011;51290;45.060;38.948;2023-10-08T09:06:33;14.90;;;5.97;;
64832;SDS011;51290;45.060;38.948;2023-10-08T09:09:06;19.00;;;6.50;;
64832;SDS011;51290;45.060;38.948;2023-10-08T09:11:48;31.90;;;7.07;;
64832;SDS011;51290;45.060;38.948;2023-10-08T09:14:19;22.23;;;6.45;;
64832;SDS011;51290;45.060;38.948;2023-10-08T09:16:46;21.65;;;5.85;;
64832;SDS011;51290;45.060;38.948;2023-10-08T09:19:12;19.42;;;6.82;;
64832;SDS011;51290;45.060;38.948;2023-10-08T09:21:59;16.27;;;6.60;;
64832;SDS011;51290;45.060;38.948;2023-10-08T09:24:35;22.83;;;6.82;;
64832;SDS011;51290;45.060;38.948;2023-10-08T09:27:11;15.40;;;6.38;;
64832;SDS011;51290;45.060;38.948;2023-10-08T09:29:41;11.68;;;6.18;;
64832;SDS011;51290;45.060;38.948;2023-10-08T09:32:09;17.33;;;5.88;;
64832;SDS011;51290;45.060;38.948;2023-10-08T09:34:36;12.40;;;6.18;;
64832;SDS011;51290;45.060;38.948;2023-10-08T09:37:03;14.82;;;6.32;;
64832;SDS011;51290;45.060;38.948;2023-10-08T09:39:30;13.18;;;6.35;;
64832;SDS011;51290;45.060;38.948;2023-10-08T09:42:00;14.88;;;6.30;;
64832;SDS011;51290;45.060;38.948;2023-10-08T09:44:36;14.43;;;6.22;;
64832;SDS011;51290;45.060;38.948;2023-10-08T09:47:04;14.02;;;5.95;;
64832;SDS011;51290;45.060;38.948;2023-10-08T09:52:02;11.70;;;5.72;;
64832;SDS011;51290;45.060;38.948;2023-10-08T09:54:33;11.23;;;5.57;;
64832;SDS011;51290;45.060;38.948;2023-10-08T09:57:07;13.70;;;5.93;;
64832;SDS011;51290;45.060;38.948;2023-10-08T09:59:36;14.75;;;5.82;;
64832;SDS011;51290;45.060;38.948;2023-10-08T10:02:06;22.50;;;6.40;;
64832;SDS011;51290;45.060;38.948;2023-10-08T10:04:35;21.63;;;6.38;;
64832;SDS011;51290;45.060;38.948;2023-10-08T10:07:09;15.60;;;6.88;;
64832;SDS011;51290;45.060;38.948;2023-10-08T10:09:45;22.92;;;6.80;;
64832;SDS011;51290;45.060;38.948;2023-10-08T10:12:18;17.38;;;5.82;;
64832;SDS011;51290;45.060;38.948;2023-10-08T10:14:52;11.90;;;5.35;;
64832;SDS011;51290;45.060;38.948;2023-10-08T10:17:24;18.55;;;6.60;;
64832;SDS011;51290;45.060;38.948;2023-10-08T10:19:55;22.88;;;6.00;;
64832;SDS011;51290;45.060;38.948;2023-10-08T10:22:34;19.17;;;6.55;;
64832;SDS011;51290;45.060;38.948;2023-10-08T10:25:01;21.80;;;7.10;;
64832;SDS011;51290;45.060;38.948;2023-10-08T10:30:24;13.88;;;6.18;;
64832;SDS011;51290;45.060;38.948;2023-10-08T10:32:53;17.67;;;6.07;;
64832;SDS011;51290;45.060;38.948;2023-10-08T10:35:20;11.20;;;6.13;;
64832;SDS011;51290;45.060;38.948;2023-10-08T10:37:46;14.13;;;6.25;;
64832;SDS011;51290;45.060;38.948;2023-10-08T10:40:24;15.32;;;5.90;;
64832;SDS011;51290;45.060;38.948;2023-10-08T10:43:08;14.13;;;6.32;;
64832;SDS011;51290;45.060;38.948;2023-10-08T10:45:45;15.15;;;7.15;;
64832;SDS011;51290;45.060;38.948;2023-10-08T10:48:13;14.05;;;6.15;;
64832;SDS011;51290;45.060;38.948;2023-10-08T10:50:51;18.45;;;6.20;;
64832;SDS011;51290;45.060;38.948;2023-10-08T10:53:32;15.05;;;6.28;;
64832;SDS011;51290;45.060;38.948;2023-10-08T10:56:26;23.95;;;6.63;;
64832;SDS011;51290;45.060;38.948;2023-10-08T10:58:58;15.85;;;6.32;;
64832;SDS011;51290;45.060;38.948;2023-10-08T11:01:26;19.13;;;7.30;;
64832;SDS011;51290;45.060;38.948;2023-10-08T11:03:55;13.40;;;6.35;;
64832;SDS011;51290;45.060;38.948;2023-10-08T11:06:25;21.50;;;7.57;;
64832;SDS011;51290;45.060;38.948;2023-10-08T11:08:52;10.25;;;6.32;;
64832;SDS011;51290;45.060;38.948;2023-10-08T11:11:19;13.68;;;6.50;;
64832;SDS011;51290;45.060;38.948;2023-10-08T11:13:58;27.58;;;6.93;;
64832;SDS011;51290;45.060;38.948;2023-10-08T11:16:25;16.52;;;8.23;;
64832;SDS011;51290;45.060;38.948;2023-10-08T11:18:53;21.48;;;7.50;;
64832;SDS011;51290;45.060;38.948;2023-10-08T11:21:23;14.77;;;6.57;;
64832;SDS011;51290;45.060;38.948;2023-10-08T11:23:50;21.73;;;8.05;;
64832;SDS011;51290;45.060;38.948;2023-10-08T11:26:25;18.73;;;7.40;;
64832;SDS011;51290;45.060;38.948;2023-10-08T11:28:58;18.73;;;8.00;;
64832;SDS011;51290;45.060;38.948;2023-10-08T11:31:30;17.73;;;7.72;;
64832;SDS011;51290;45.060;38.948;2023-10-08T11:34:00;14.43;;;7.43;;
64832;SDS011;51290;45.060;38.948;2023-10-08T11:36:33;14.00;;;6.80;;
64832;SDS011;51290;45.060;38.948;2023-10-08T11:39:14;14.93;;;7.47;;
64832;SDS011;51290;45.060;38.948;2023-10-08T11:42:02;17.77;;;7.88;;
64832;SDS011;51290;45.060;38.948;2023-10-08T11:44:51;11.85;;;7.13;;
64832;SDS011;51290;45.060;38.948;2023-10-08T11:47:17;13.68;;;7.55;;
64832;SDS011;51290;45.060;38.948;2023-10-08T11:49:47;15.77;;;7.70;;
64832;SDS011;51290;45.060;38.948;2023-10-08T11:52:16;17.88;;;7.25;;
64832;SDS011;51290;45.060;38.948;2023-10-08T11:54:46;17.58;;;7.38;;
64832;SDS011;51290;45.060;38.948;2023-10-08T11:57:14;20.10;;;6.97;;
64832;SDS011;51290;45.060;38.948;2023-10-08T11:59:47;15.00;;;6.85;;
64832;SDS011;51290;45.060;38.948;2023-10-08T12:02:14;22.15;;;7.82;;
64832;SDS011;51290;45.060;38.948;2023-10-08T12:04:42;22.20;;;8.30;;
64832;SDS011;51290;45.060;38.948;2023-10-08T12:07:10;18.33;;;6.50;;
64832;SDS011;51290;45.060;38.948;2023-10-08T12:09:38;13.95;;;6.70;;
64832;SDS011;51290;45.060;38.948;2023-10-08T12:12:06;14.20;;;7.20;;
64832;SDS011;51290;45.060;38.948;2023-10-08T12:14:37;18.05;;;7.22;;
64832;SDS011;51290;45.060;38.948;2023-10-08T12:17:04;22.75;;;7.60;;
64832;SDS011;51290;45.060;38.948;2023-10-08T12:19:39;17.50;;;7.30;;
64832;SDS011;51290;45.060;38.948;2023-10-08T12:22:08;13.15;;;7.03;;
64832;SDS011;51290;45.060;38.948;2023-10-08T12:24:34;18.33;;;8.45;;
64832;SDS011;51290;45.060;38.948;2023-10-08T12:27:01;19.67;;;8.10;;
64832;SDS011;51290;45.060;38.948;2023-10-08T12:29:28;12.85;;;7.45;;
64832;SDS011;51290;45.060;38.948;2023-10-08T12:31:56;18.30;;;8.70;;
64832;SDS011;51290;45.060;38.948;2023-10-08T12:34:25;16.70;;;8.02;;
64832;SDS011;51290;45.060;38.948;2023-10-08T12:36:54;16.80;;;8.13;;
64832;SDS011;51290;45.060;38.948;2023-10-08T12:39:20;17.45;;;8.32;;
64832;SDS011;51290;45.060;38.948;2023-10-08T12:41:50;15.00;;;7.50;;
64832;SDS011;51290;45.060;38.948;2023-10-08T12:44:18;14.68;;;7.10;;
64832;SDS011;51290;45.060;38.948;2023-10-08T12:46:44;16.88;;;7.88;;
64832;SDS011;51290;45.060;38.948;2023-10-08T12:49:14;36.35;;;8.32;;
64832;SDS011;51290;45.060;38.948;2023-10-08T12:51:40;13.15;;;7.90;;
64832;SDS011;51290;45.060;38.948;2023-10-08T12:54:06;14.30;;;8.20;;
64832;SDS011;51290;45.060;38.948;2023-10-08T12:56:36;15.70;;;8.13;;
64832;SDS011;51290;45.060;38.948;2023-10-08T12:59:10;15.07;;;7.82;;
64832;SDS011;51290;45.060;38.948;2023-10-08T13:01:46;16.88;;;9.20;;
64832;SDS011;51290;45.060;38.948;2023-10-08T13:04:19;15.80;;;8.27;;
64832;SDS011;51290;45.060;38.948;2023-10-08T13:06:53;11.63;;;8.07;;
64832;SDS011;51290;45.060;38.948;2023-10-08T13:09:23;17.80;;;7.82;;
64832;SDS011;51290;45.060;38.948;2023-10-08T13:11:49;16.58;;;8.77;;
64832;SDS011;51290;45.060;38.948;2023-10-08T13:14:15;20.17;;;8.98;;
64832;SDS011;51290;45.060;38.948;2023-10-08T13:16:43;18.30;;;8.55;;
64832;SDS011;51290;45.060;38.948;2023-10-08T13:19:10;14.02;;;7.57;;
64832;SDS011;51290;45.060;38.948;2023-10-08T13:21:37;20.70;;;8.73;;
64832;SDS011;51290;45.060;38.948;2023-10-08T13:24:05;12.23;;;8.38;;
64832;SDS011;51290;45.060;38.948;2023-10-08T13:26:34;17.58;;;8.43;;
64832;SDS011;51290;45.060;38.948;2023-10-08T13:29:02;15.63;;;9.10;;
64832;SDS011;51290;45.060;38.948;2023-10-08T13:31:28;17.40;;;8.25;;
64832;SDS011;51290;45.060;38.948;2023-10-08T13:33:55;13.02;;;7.93;;
64832;SDS011;51290;45.060;38.948;2023-10-08T13:36:28;10.73;;;7.95;;
64832;SDS011;51290;45.060;38.948;2023-10-08T13:38:54;15.27;;;8.10;;
64832;SDS011;51290;45.060;38.948;2023-10-08T13:41:21;16.25;;;8.88;;
64832;SDS011;51290;45.060;38.948;2023-10-08T13:43:47;17.80;;;9.10;;
64832;SDS011;51290;45.060;38.948;2023-10-08T13:46:19;18.70;;;9.25;;
64832;SDS011;51290;45.060;38.948;2023-10-08T13:48:48;19.55;;;9.48;;
64832;SDS011;51290;45.060;38.948;2023-10-08T13:51:15;14.57;;;8.95;;
64832;SDS011;51290;45.060;38.948;2023-10-08T13:53:55;15.50;;;8.55;;
64832;SDS011;51290;45.060;38.948;2023-10-08T13:59:14;24.10;;;8.80;;
64832;SDS011;51290;45.060;38.948;2023-10-08T14:01:42;15.10;;;8.85;;
64832;SDS011;51290;45.060;38.948;2023-10-08T14:04:12;19.75;;;9.23;;
64832;SDS011;51290;45.060;38.948;2023-10-08T14:06:42;16.25;;;8.88;;
64832;SDS011;51290;45.060;38.948;2023-10-08T14:09:13;15.10;;;8.80;;
64832;SDS011;51290;45.060;38.948;2023-10-08T14:11:46;16.38;;;9.35;;
64832;SDS011;51290;45.060;38.948;2023-10-08T14:14:13;11.85;;;7.75;;
64832;SDS011;51290;45.060;38.948;2023-10-08T14:16:42;18.70;;;8.52;;
64832;SDS011;51290;45.060;38.948;2023-10-08T14:19:11;14.52;;;9.02;;
64832;SDS011;51290;45.060;38.948;2023-10-08T14:21:40;13.48;;;8.82;;
64832;SDS011;51290;45.060;38.948;2023-10-08T14:24:30;16.08;;;8.98;;
64832;SDS011;51290;45.060;38.948;2023-10-08T14:27:03;14.27;;;8.68;;
64832;SDS011;51290;45.060;38.948;2023-10-08T14:29:44;13.82;;;7.93;;
64832;SDS011;51290;45.060;38.948;2023-10-08T14:32:11;14.75;;;8.32;;
64832;SDS011;51290;45.060;38.948;2023-10-08T14:34:37;12.48;;;8.95;;
64832;SDS011;51290;45.060;38.948;2023-10-08T14:37:13;12.07;;;8.82;;
64832;SDS011;51290;45.060;38.948;2023-10-08T14:39:58;19.13;;;8.50;;
64832;SDS011;51290;45.060;38.948;2023-10-08T14:42:42;16.08;;;8.23;;
64832;SDS011;51290;45.060;38.948;2023-10-08T14:45:28;15.98;;;8.57;;
64832;SDS011;51290;45.060;38.948;2023-10-08T14:48:00;15.10;;;8.43;;
64832;SDS011;51290;45.060;38.948;2023-10-08T14:50:27;17.75;;;9.02;;
64832;SDS011;51290;45.060;38.948;2023-10-08T14:52:56;12.85;;;8.77;;
64832;SDS011;51290;45.060;38.948;2023-10-08T14:55:23;26.38;;;9.52;;
64832;SDS011;51290;45.060;38.948;2023-10-08T14:57:50;14.30;;;8.60;;
64832;SDS011;51290;45.060;38.948;2023-10-08T15:00:18;16.33;;;8.60;;
64832;SDS011;51290;45.060;38.948;2023-10-08T15:02:54;11.52;;;8.38;;
64832;SDS011;51290;45.060;38.948;2023-10-08T15:05:21;17.70;;;8.95;;
64832;SDS011;51290;45.060;38.948;2023-10-08T15:07:48;13.90;;;9.07;;